createdAt,value
2018-12-29T00:00:26.293Z,41.50
2018-12-29T00:02:55.148Z,41.30
2018-12-29T00:05:24.112Z,41.00
2018-12-29T00:07:53.200Z,41.20
2018-12-29T00:10:22.064Z,41.20
2018-12-29T00:12:50.962Z,41.60
2018-12-29T00:15:19.868Z,41.30
2018-12-29T00:17:48.794Z,41.60
2018-12-29T00:20:17.605Z,42.00
2018-12-29T00:22:46.499Z,41.30
2018-12-29T00:25:15.376Z,41.10
2018-12-29T00:27:44.216Z,40.50
2018-12-29T00:30:13.480Z,40.50
2018-12-29T00:32:42.265Z,40.40
2018-12-29T00:35:11.035Z,41.00
2018-12-29T00:37:39.936Z,40.70
2018-12-29T00:40:08.916Z,41.50
2018-12-29T00:42:37.724Z,41.30
2018-12-29T00:45:06.645Z,41.10
2018-12-29T00:47:35.607Z,41.50
2018-12-29T00:50:04.960Z,41.60
2018-12-29T00:52:33.964Z,41.70
2018-12-29T00:55:02.740Z,42.30
2018-12-29T00:57:31.644Z,41.80
2018-12-29T01:00:00.548Z,41.70
2018-12-29T01:02:29.532Z,42.50
2018-12-29T01:04:58.424Z,42.70
2018-12-29T01:07:27.405Z,43.40
2018-12-29T01:09:56.211Z,43.30
2018-12-29T01:12:25.001Z,43.70
2018-12-29T01:14:53.828Z,43.90
2018-12-29T01:17:22.716Z,44.10
2018-12-29T01:19:51.825Z,44.70
2018-12-29T01:22:20.800Z,45.20
2018-12-29T01:24:49.676Z,46.00
2018-12-29T01:27:18.456Z,45.90
2018-12-29T01:29:47.266Z,45.70
2018-12-29T01:32:16.091Z,45.40
2018-12-29T01:34:44.867Z,45.60
2018-12-29T01:37:13.704Z,45.90
2018-12-29T01:39:42.674Z,46.00
2018-12-29T01:42:11.475Z,46.10
2018-12-29T01:44:40.376Z,46.10
2018-12-29T01:47:09.285Z,46.20
2018-12-29T01:49:38.209Z,46.10
2018-12-29T01:52:07.107Z,46.00
2018-12-29T01:54:35.918Z,46.80
2018-12-29T01:57:04.784Z,47.30
2018-12-29T01:59:33.716Z,47.40
2018-12-29T02:02:02.619Z,47.30
2018-12-29T02:04:31.632Z,47.30
2018-12-29T02:07:00.400Z,47.40
2018-12-29T02:09:29.308Z,47.50
2018-12-29T02:11:58.116Z,47.70
2018-12-29T02:14:26.981Z,46.50
2018-12-29T02:16:55.860Z,46.20
2018-12-29T02:19:24.840Z,45.80
2018-12-29T02:21:53.732Z,45.30
2018-12-29T02:24:22.620Z,45.40
2018-12-29T02:26:51.472Z,45.00
2018-12-29T02:29:20.340Z,45.20
2018-12-29T02:31:49.150Z,45.80
2018-12-29T02:34:18.070Z,45.90
2018-12-29T02:36:46.888Z,46.10
2018-12-29T02:39:15.843Z,46.20
2018-12-29T02:41:44.826Z,45.90
2018-12-29T02:44:13.724Z,46.20
2018-12-29T02:46:42.567Z,46.50
2018-12-29T02:49:11.330Z,46.90
2018-12-29T02:51:40.196Z,46.70
2018-12-29T02:54:09.092Z,47.10
2018-12-29T02:56:37.901Z,47.70
2018-12-29T02:59:06.832Z,47.70
2018-12-29T03:01:35.776Z,48.20
2018-12-29T03:04:04.660Z,48.50
2018-12-29T03:06:33.768Z,49.80
2018-12-29T03:09:02.744Z,49.70
2018-12-29T03:11:31.805Z,49.20
2018-12-29T03:14:00.624Z,48.90
2018-12-29T03:16:29.440Z,49.30
2018-12-29T03:18:58.237Z,49.50
2018-12-29T03:21:27.042Z,49.00
2018-12-29T03:23:55.877Z,49.00
2018-12-29T03:26:24.863Z,48.90
2018-12-29T03:28:53.884Z,47.70
2018-12-29T03:31:22.793Z,47.70
2018-12-29T03:33:51.636Z,47.60
2018-12-29T03:36:20.429Z,47.60
2018-12-29T03:38:49.344Z,46.30
2018-12-29T03:41:18.237Z,46.80
2018-12-29T03:43:47.110Z,47.20
2018-12-29T03:46:15.977Z,47.50
2018-12-29T03:48:44.778Z,47.50
2018-12-29T03:51:13.640Z,46.70
2018-12-29T03:53:42.532Z,46.50
2018-12-29T03:56:11.528Z,45.70
2018-12-29T03:58:40.331Z,45.90
2018-12-29T04:01:09.320Z,46.70
2018-12-29T04:03:38.124Z,46.60
2018-12-29T04:06:06.924Z,46.50
2018-12-29T04:08:35.887Z,46.20
2018-12-29T04:11:04.928Z,46.30
2018-12-29T04:13:34.377Z,46.80
2018-12-29T04:16:03.265Z,46.50
2018-12-29T04:18:32.056Z,46.30
2018-12-29T04:21:00.848Z,45.50
2018-12-29T04:23:29.670Z,45.40
2018-12-29T04:25:58.436Z,45.30
2018-12-29T04:28:27.236Z,45.10
2018-12-29T04:30:56.203Z,45.20
2018-12-29T04:33:25.008Z,45.40
2018-12-29T04:35:53.884Z,45.20
2018-12-29T04:38:22.660Z,45.60
2018-12-29T04:40:51.451Z,46.00
2018-12-29T04:43:20.268Z,46.20
2018-12-29T04:45:49.321Z,46.80
2018-12-29T04:48:18.217Z,46.60
2018-12-29T04:50:47.384Z,46.70
2018-12-29T04:53:16.288Z,46.20
2018-12-29T04:55:45.180Z,46.40
2018-12-29T04:58:14.122Z,46.70
2018-12-29T05:00:42.968Z,46.40
2018-12-29T05:03:11.844Z,46.40
2018-12-29T05:05:40.656Z,46.40
2018-12-29T05:08:09.520Z,46.60
2018-12-29T05:10:38.336Z,46.80
2018-12-29T05:13:07.298Z,47.10
2018-12-29T05:15:36.204Z,47.30
2018-12-29T05:18:05.011Z,47.60
2018-12-29T05:20:33.821Z,47.10
2018-12-29T05:23:02.940Z,47.00
2018-12-29T05:25:31.817Z,46.70
2018-12-29T05:28:00.753Z,46.70
2018-12-29T05:30:29.680Z,46.70
2018-12-29T05:32:58.468Z,46.20
2018-12-29T05:35:27.265Z,46.10
2018-12-29T05:37:56.041Z,46.00
2018-12-29T05:40:25.250Z,46.00
2018-12-29T05:42:55.964Z,46.00
2018-12-29T05:45:25.032Z,45.80
2018-12-29T05:47:53.844Z,45.50
2018-12-29T05:50:22.640Z,45.20
2018-12-29T05:52:51.508Z,45.50
2018-12-29T05:55:20.376Z,46.40
2018-12-29T05:57:49.164Z,47.50
2018-12-29T06:00:18.056Z,47.20
2018-12-29T06:02:46.852Z,47.40
2018-12-29T06:05:15.708Z,47.70
2018-12-29T06:07:44.521Z,47.70
2018-12-29T06:10:13.424Z,47.90
2018-12-29T06:12:42.304Z,48.00
2018-12-29T06:15:11.272Z,48.00
2018-12-29T06:17:40.172Z,48.70
2018-12-29T06:20:09.052Z,48.30
2018-12-29T06:22:37.900Z,48.80
2018-12-29T06:25:06.800Z,48.70
2018-12-29T06:27:35.621Z,48.50
2018-12-29T06:30:04.796Z,48.40
2018-12-29T06:32:33.704Z,48.10
2018-12-29T06:35:02.484Z,49.00
2018-12-29T06:37:31.352Z,49.60
2018-12-29T06:40:00.357Z,49.60
2018-12-29T06:42:29.150Z,49.20
2018-12-29T06:44:57.953Z,49.50
2018-12-29T06:47:26.851Z,50.20
2018-12-29T06:49:55.648Z,50.20
2018-12-29T06:52:24.528Z,50.30
2018-12-29T06:54:53.324Z,50.50
2018-12-29T06:57:22.246Z,50.10
2018-12-29T06:59:51.060Z,50.30
2018-12-29T07:02:19.880Z,50.10
2018-12-29T07:04:48.660Z,50.50
2018-12-29T07:07:17.533Z,50.60
2018-12-29T07:09:46.363Z,51.00
2018-12-29T07:12:15.168Z,51.80
2018-12-29T07:14:44.039Z,52.20
2018-12-29T07:17:12.840Z,52.00
2018-12-29T07:19:41.612Z,51.40
2018-12-29T07:22:10.457Z,51.50
2018-12-29T07:24:39.380Z,50.60
2018-12-29T07:27:08.185Z,51.90
2018-12-29T07:29:38.415Z,52.10
2018-12-29T07:32:07.348Z,51.70
2018-12-29T07:34:36.114Z,51.40
2018-12-29T07:37:05.188Z,51.30
2018-12-29T07:39:34.071Z,50.40
2018-12-29T07:42:02.953Z,50.30
2018-12-29T07:44:31.785Z,50.10
2018-12-29T07:47:00.644Z,50.20
2018-12-29T07:49:29.540Z,50.00
2018-12-29T07:51:58.389Z,50.60
2018-12-29T07:54:27.476Z,51.00
2018-12-29T07:56:56.288Z,51.30
2018-12-29T07:59:25.107Z,51.20
2018-12-29T08:01:54.220Z,51.50
2018-12-29T08:04:23.004Z,50.90
2018-12-29T08:06:51.824Z,51.80
2018-12-29T08:09:20.568Z,52.00
2018-12-29T08:11:49.392Z,52.00
2018-12-29T08:14:18.205Z,51.70
2018-12-29T08:16:47.073Z,51.80
2018-12-29T08:19:15.888Z,51.80
2018-12-29T08:21:44.733Z,52.40
2018-12-29T08:24:13.529Z,51.90
2018-12-29T08:26:42.327Z,51.50
2018-12-29T08:29:11.688Z,50.20
2018-12-29T08:31:40.472Z,50.80
2018-12-29T08:34:09.260Z,51.60
2018-12-29T08:36:38.128Z,51.70
2018-12-29T08:39:07.346Z,51.80
2018-12-29T08:41:36.452Z,51.40
2018-12-29T08:44:05.412Z,51.50
2018-12-29T08:46:34.348Z,51.30
2018-12-29T08:49:03.264Z,51.30
2018-12-29T08:51:32.172Z,51.20
2018-12-29T08:54:01.015Z,51.60
2018-12-29T08:56:29.813Z,51.90
2018-12-29T08:58:58.671Z,51.90
2018-12-29T09:01:27.592Z,51.50
2018-12-29T09:03:56.437Z,52.00
2018-12-29T09:06:25.400Z,51.20
2018-12-29T09:08:54.296Z,51.20
2018-12-29T09:11:23.189Z,51.20
2018-12-29T09:13:51.997Z,51.80
2018-12-29T09:16:20.813Z,50.90
2018-12-29T09:18:50.010Z,50.80
2018-12-29T09:21:18.931Z,50.20
2018-12-29T09:23:47.760Z,49.80
2018-12-29T09:26:16.566Z,50.20
2018-12-29T09:28:45.428Z,50.80
2018-12-29T09:31:14.233Z,50.70
2018-12-29T09:33:43.109Z,50.80
2018-12-29T09:36:11.998Z,50.20
2018-12-29T09:38:40.808Z,50.70
2018-12-29T09:41:09.800Z,50.50
2018-12-29T09:43:38.620Z,50.80
2018-12-29T09:46:07.684Z,51.30
2018-12-29T09:48:36.499Z,51.40
2018-12-29T09:51:05.333Z,51.80
2018-12-29T09:53:34.328Z,51.80
2018-12-29T09:56:03.224Z,52.00
2018-12-29T09:58:32.140Z,51.50
2018-12-29T10:01:01.118Z,51.90
2018-12-29T10:03:30.133Z,51.80
2018-12-29T10:05:59.027Z,52.20
2018-12-29T10:08:27.937Z,51.30
2018-12-29T10:10:56.777Z,51.60
2018-12-29T10:13:25.572Z,50.60
2018-12-29T10:15:54.352Z,51.10
2018-12-29T10:18:23.149Z,51.80
2018-12-29T10:20:51.921Z,51.90
2018-12-29T10:23:20.754Z,51.10
2018-12-29T10:25:49.560Z,50.90
2018-12-29T10:28:18.477Z,50.60
2018-12-29T10:30:47.269Z,51.00
2018-12-29T10:33:16.061Z,51.30
2018-12-29T10:35:45.313Z,51.10
2018-12-29T10:38:14.093Z,51.00
2018-12-29T10:40:43.027Z,51.40
2018-12-29T10:43:11.840Z,51.10
2018-12-29T10:45:40.651Z,50.30
2018-12-29T10:48:09.552Z,50.60
2018-12-29T10:50:38.356Z,50.20
2018-12-29T10:53:07.236Z,50.00
2018-12-29T10:55:36.044Z,50.10
2018-12-29T10:58:04.872Z,49.90
2018-12-29T11:00:35.179Z,50.40
2018-12-29T11:03:04.456Z,50.50
2018-12-29T11:05:33.233Z,50.80
2018-12-29T11:08:02.032Z,50.80
2018-12-29T11:10:30.845Z,51.40
2018-12-29T11:12:59.836Z,51.20
2018-12-29T11:15:28.740Z,50.90
2018-12-29T11:17:57.644Z,51.50
2018-12-29T11:20:26.575Z,52.20
2018-12-29T11:22:55.405Z,52.50
2018-12-29T11:25:24.542Z,52.80
2018-12-29T11:27:53.292Z,53.00
2018-12-29T11:30:22.196Z,53.30
2018-12-29T11:32:51.041Z,53.30
2018-12-29T11:35:19.934Z,52.90
2018-12-29T11:37:48.716Z,54.20
2018-12-29T11:40:17.589Z,54.80
2018-12-29T11:42:46.376Z,54.30
2018-12-29T11:45:15.208Z,55.10
2018-12-29T11:47:49.824Z,54.90
2018-12-29T11:50:14.636Z,54.50
2018-12-29T11:52:43.780Z,53.60
2018-12-29T11:55:12.556Z,54.20
2018-12-29T11:57:41.342Z,53.00
2018-12-29T12:00:10.352Z,53.00
2018-12-29T12:02:39.144Z,52.30
2018-12-29T12:05:08.136Z,52.50
2018-12-29T12:07:37.052Z,52.80
2018-12-29T12:10:06.008Z,53.40
2018-12-29T12:12:35.280Z,53.80
2018-12-29T12:15:04.245Z,52.40
2018-12-29T12:17:33.049Z,53.70
2018-12-29T12:20:01.908Z,53.40
2018-12-29T12:22:30.824Z,53.20
2018-12-29T12:24:59.965Z,51.20
2018-12-29T12:27:28.768Z,52.00
2018-12-29T12:29:58.004Z,51.90
2018-12-29T12:32:26.804Z,52.70
2018-12-29T12:34:55.869Z,52.50
2018-12-29T12:37:24.632Z,53.10
2018-12-29T12:39:53.708Z,53.50
2018-12-29T12:42:22.540Z,53.80
2018-12-29T12:44:51.341Z,53.00
2018-12-29T12:47:20.108Z,52.50
2018-12-29T12:49:49.072Z,52.30
2018-12-29T12:52:17.928Z,52.10
2018-12-29T12:54:46.928Z,52.50
2018-12-29T12:57:16.041Z,53.00
2018-12-29T12:59:45.212Z,52.50
2018-12-29T13:02:14.114Z,52.40
2018-12-29T13:04:43.196Z,51.50
2018-12-29T13:07:11.976Z,51.20
2018-12-29T13:09:41.040Z,51.20
2018-12-29T13:12:10.005Z,51.10
2018-12-29T13:14:38.787Z,50.00
2018-12-29T13:17:07.967Z,50.90
2018-12-29T13:19:36.943Z,50.40
2018-12-29T13:22:06.068Z,48.80
2018-12-29T13:24:35.072Z,47.50
2018-12-29T13:27:03.875Z,48.30
2018-12-29T13:29:32.659Z,48.00
2018-12-29T13:32:01.556Z,48.70
2018-12-29T13:34:30.528Z,48.60
2018-12-29T13:36:59.436Z,48.50
2018-12-29T13:39:28.239Z,48.10
2018-12-29T13:41:57.049Z,48.70
2018-12-29T13:44:25.856Z,48.70
2018-12-29T13:46:54.965Z,48.80
2018-12-29T13:49:23.784Z,49.20
2018-12-29T13:51:52.697Z,48.50
2018-12-29T13:54:21.524Z,48.00
2018-12-29T13:56:50.452Z,48.00
2018-12-29T13:59:19.394Z,47.00
2018-12-29T14:01:48.280Z,46.80
2018-12-29T14:04:17.333Z,46.90
2018-12-29T14:06:46.239Z,46.60
2018-12-29T14:09:15.145Z,46.40
2018-12-29T14:11:43.950Z,46.60
2018-12-29T14:14:12.864Z,46.80
2018-12-29T14:16:41.908Z,46.30
2018-12-29T14:19:10.728Z,46.40
2018-12-29T14:21:39.617Z,46.50
2018-12-29T14:24:08.581Z,46.20
2018-12-29T14:26:37.417Z,46.60
2018-12-29T14:29:06.293Z,45.90
2018-12-29T14:31:35.200Z,45.80
2018-12-29T14:34:04.328Z,45.80
2018-12-29T14:36:33.246Z,45.70
2018-12-29T14:39:02.168Z,46.20
2018-12-29T14:41:31.160Z,46.30
2018-12-29T14:44:00.085Z,45.70
2018-12-29T14:46:29.010Z,46.30
2018-12-29T14:48:57.872Z,46.30
2018-12-29T14:51:26.656Z,46.30
2018-12-29T14:53:55.621Z,45.70
2018-12-29T14:56:24.546Z,45.70
2018-12-29T14:58:53.436Z,45.60
2018-12-29T15:01:22.279Z,45.40
2018-12-29T15:03:51.467Z,44.90
2018-12-29T15:06:20.274Z,44.00
2018-12-29T15:08:49.065Z,43.70
2018-12-29T15:11:19.624Z,43.60
2018-12-29T15:13:48.744Z,44.60
2018-12-29T15:16:17.740Z,50.50
2018-12-29T15:18:46.644Z,45.60
2018-12-29T15:21:15.563Z,44.80
2018-12-29T15:23:44.484Z,45.00
2018-12-29T15:26:13.549Z,44.80
2018-12-29T15:28:42.428Z,44.50
2018-12-29T15:31:11.376Z,44.10
2018-12-29T15:33:40.663Z,44.90
2018-12-29T15:36:16.045Z,44.50
2018-12-29T15:38:40.199Z,44.40
2018-12-29T15:41:09.112Z,44.50
2018-12-29T15:43:38.008Z,44.50
2018-12-29T15:46:06.784Z,44.80
2018-12-29T15:48:35.688Z,44.70
2018-12-29T15:51:04.580Z,44.60
2018-12-29T15:53:33.659Z,44.70
2018-12-29T15:56:02.660Z,44.90
2018-12-29T15:58:31.513Z,44.80
2018-12-29T16:01:00.428Z,44.90
2018-12-29T16:03:29.519Z,45.00
2018-12-29T16:05:58.715Z,45.10
2018-12-29T16:08:27.876Z,44.90
2018-12-29T16:10:56.760Z,44.80
2018-12-29T16:13:25.772Z,44.90
2018-12-29T16:15:55.057Z,45.10
2018-12-29T16:18:24.217Z,45.60
2018-12-29T16:20:55.239Z,45.50
2018-12-29T16:23:26.174Z,46.10
2018-12-29T16:25:57.935Z,46.20
2018-12-29T16:28:30.037Z,46.30
2018-12-29T16:30:59.105Z,46.40
2018-12-29T16:33:28.162Z,46.20
2018-12-29T16:35:57.260Z,46.90
2018-12-29T16:38:26.097Z,46.70
2018-12-29T16:40:57.981Z,47.00
2018-12-29T16:43:26.122Z,46.70
2018-12-29T16:45:54.989Z,46.80
2018-12-29T16:48:23.891Z,46.10
2018-12-29T16:50:53.196Z,45.90
2018-12-29T16:53:28.956Z,46.00
2018-12-29T16:55:52.688Z,46.00
2018-12-29T16:58:21.680Z,46.30
2018-12-29T17:00:51.120Z,46.10
2018-12-29T17:03:19.980Z,46.80
2018-12-29T17:05:48.932Z,46.70
2018-12-29T17:08:17.756Z,46.80
2018-12-29T17:10:47.032Z,46.80
2018-12-29T17:13:15.872Z,47.10
2018-12-29T17:15:44.665Z,47.10
2018-12-29T17:18:13.810Z,47.30
2018-12-29T17:20:43.439Z,46.90
2018-12-29T17:23:12.554Z,46.80
2018-12-29T17:25:41.784Z,47.00
2018-12-29T17:28:10.669Z,46.50
2018-12-29T17:30:39.641Z,46.30
2018-12-29T17:33:09.144Z,46.10
2018-12-29T17:35:38.008Z,45.80
2018-12-29T17:38:06.916Z,45.30
2018-12-29T17:40:35.716Z,45.40
2018-12-29T17:43:04.544Z,45.40
2018-12-29T17:45:33.489Z,45.70
2018-12-29T17:48:02.440Z,46.20
2018-12-29T17:50:31.529Z,46.10
2018-12-29T17:53:00.465Z,46.10
2018-12-29T17:55:29.424Z,45.90
2018-12-29T17:57:59.820Z,46.00
2018-12-29T18:00:30.252Z,45.50
2018-12-29T18:02:59.293Z,45.30
2018-12-29T18:05:28.580Z,45.70
2018-12-29T18:07:57.443Z,45.60
2018-12-29T18:10:26.746Z,45.80
2018-12-29T18:12:55.810Z,46.40
2018-12-29T18:15:24.796Z,46.90
2018-12-29T18:17:53.837Z,48.00
2018-12-29T18:20:22.728Z,49.10
2018-12-29T18:22:51.649Z,49.20
2018-12-29T18:25:20.869Z,50.10
2018-12-29T18:27:50.112Z,50.20
2018-12-29T18:30:19.305Z,50.20
2018-12-29T18:32:48.229Z,50.10
2018-12-29T18:35:19.488Z,51.80
2018-12-29T18:37:48.498Z,53.90
2018-12-29T18:40:17.567Z,53.90
2018-12-29T18:42:46.654Z,55.20
2018-12-29T18:45:15.648Z,55.50
2018-12-29T18:47:44.576Z,55.90
2018-12-29T18:50:13.492Z,56.40
2018-12-29T18:52:42.460Z,56.60
2018-12-29T18:55:11.540Z,57.20
2018-12-29T18:57:40.456Z,57.40
2018-12-29T19:00:09.449Z,58.30
2018-12-29T19:02:38.381Z,58.20
2018-12-29T19:05:07.637Z,58.00
2018-12-29T19:07:36.516Z,58.00
2018-12-29T19:10:05.872Z,57.90
2018-12-29T19:12:34.880Z,57.10
2018-12-29T19:15:04.039Z,57.40
2018-12-29T19:17:33.112Z,57.20
2018-12-29T19:20:02.308Z,57.40
2018-12-29T19:22:31.213Z,57.40
2018-12-29T19:25:00.441Z,57.60
2018-12-29T19:27:29.619Z,57.80
2018-12-29T19:29:58.793Z,58.10
2018-12-29T19:32:28.982Z,58.50
2018-12-29T19:34:58.633Z,58.40
2018-12-29T19:37:27.560Z,58.40
2018-12-29T19:39:56.920Z,59.80
2018-12-29T19:42:26.088Z,59.40
2018-12-29T19:44:54.887Z,59.20
2018-12-29T19:47:24.016Z,59.90
2018-12-29T19:49:54.424Z,59.80
2018-12-29T19:52:23.326Z,60.30
2018-12-29T19:54:52.191Z,58.80
2018-12-29T19:57:21.591Z,56.60
2018-12-29T19:59:50.600Z,54.40
2018-12-29T20:02:19.857Z,53.20
2018-12-29T20:04:49.104Z,51.90
2018-12-29T20:07:18.652Z,50.90
2018-12-29T20:09:47.476Z,49.60
2018-12-29T20:12:16.385Z,49.50
2018-12-29T20:14:45.268Z,48.70
2018-12-29T20:17:14.104Z,48.90
2018-12-29T20:19:43.098Z,48.50
2018-12-29T20:22:12.288Z,47.50
2018-12-29T20:24:41.226Z,47.90
2018-12-29T20:27:10.096Z,47.40
2018-12-29T20:29:38.872Z,47.70
2018-12-29T20:32:08.144Z,47.40
2018-12-29T20:34:36.994Z,47.90
2018-12-29T20:37:05.956Z,48.10
2018-12-29T20:39:34.916Z,47.60
2018-12-29T20:42:03.834Z,47.80
2018-12-29T20:44:32.721Z,48.30
2018-12-29T20:47:01.825Z,48.00
2018-12-29T20:49:30.817Z,48.10
2018-12-29T20:51:59.709Z,47.70
2018-12-29T20:54:28.643Z,48.20
2018-12-29T20:56:57.677Z,48.00
2018-12-29T20:59:26.581Z,48.40
2018-12-29T21:01:55.476Z,48.90
2018-12-29T21:04:24.388Z,48.60
2018-12-29T21:06:53.245Z,48.40
2018-12-29T21:09:22.140Z,48.80
2018-12-29T21:11:50.972Z,48.50
2018-12-29T21:14:19.962Z,48.50
2018-12-29T21:16:48.893Z,48.70
2018-12-29T21:19:17.748Z,49.30
2018-12-29T21:21:46.572Z,49.30
2018-12-29T21:24:15.556Z,49.10
2018-12-29T21:26:45.037Z,49.20
2018-12-29T21:29:13.930Z,49.50
2018-12-29T21:31:42.719Z,49.30
2018-12-29T21:34:11.495Z,49.10
2018-12-29T21:36:40.392Z,49.30
2018-12-29T21:39:09.276Z,49.70
2018-12-29T21:41:38.241Z,49.30
2018-12-29T21:44:07.124Z,49.70
2018-12-29T21:46:36.056Z,49.50
2018-12-29T21:49:04.960Z,49.70
2018-12-29T21:51:33.744Z,50.50
2018-12-29T21:54:02.831Z,50.00
2018-12-29T21:56:31.653Z,50.80
2018-12-29T21:59:00.578Z,50.80
2018-12-29T22:01:29.564Z,50.90
2018-12-29T22:03:58.460Z,50.80
2018-12-29T22:06:27.284Z,50.80
2018-12-29T22:08:56.072Z,50.60
2018-12-29T22:11:24.877Z,50.90
2018-12-29T22:13:53.740Z,50.50
2018-12-29T22:16:22.527Z,50.90
2018-12-29T22:18:51.468Z,50.80
2018-12-29T22:21:20.451Z,50.90
2018-12-29T22:23:49.252Z,51.00
2018-12-29T22:26:18.096Z,50.90
2018-12-29T22:28:46.992Z,50.90
2018-12-29T22:31:16.040Z,50.90
2018-12-29T22:33:44.940Z,51.00
2018-12-29T22:36:13.827Z,51.10
2018-12-29T22:38:42.780Z,51.30
2018-12-29T22:41:11.650Z,51.10
2018-12-29T22:43:40.469Z,51.00
2018-12-29T22:46:12.483Z,51.00
2018-12-29T22:48:41.292Z,51.00
2018-12-29T22:51:10.124Z,51.60
2018-12-29T22:53:39.025Z,51.20
2018-12-29T22:56:07.904Z,51.40
2018-12-29T22:58:36.796Z,51.00
2018-12-29T23:01:06.072Z,51.60
2018-12-29T23:03:35.276Z,51.40
2018-12-29T23:06:05.358Z,51.00
2018-12-29T23:08:34.399Z,51.30
2018-12-29T23:11:03.744Z,51.10
2018-12-29T23:13:32.537Z,51.50
2018-12-29T23:16:01.425Z,51.60
2018-12-29T23:18:30.397Z,51.50
2018-12-29T23:20:59.168Z,51.80
2018-12-29T23:23:28.080Z,51.90
2018-12-29T23:25:57.184Z,51.90
2018-12-29T23:28:26.012Z,52.00
2018-12-29T23:30:55.237Z,52.20
2018-12-29T23:33:24.064Z,52.40
2018-12-29T23:35:53.060Z,52.50
2018-12-29T23:38:21.964Z,52.30
2018-12-29T23:40:50.952Z,52.40
2018-12-29T23:43:19.782Z,52.30
2018-12-29T23:45:48.920Z,52.80
2018-12-29T23:48:17.791Z,52.50
2018-12-29T23:50:46.812Z,52.70
2018-12-29T23:53:15.732Z,52.40
2018-12-29T23:55:44.892Z,52.40
2018-12-29T23:58:13.748Z,52.10
